sensor_id;sensor_type;location;lat;lon;timestamp;temperature;humidity
21037;DHT22;10677;50.942;4.028;2023-08-12T00:01:48;22.40;99.90
21037;DHT22;10677;50.942;4.028;2023-08-12T00:04:14;22.30;99.90
21037;DHT22;10677;50.942;4.028;2023-08-12T00:06:42;22.20;99.90
21037;DHT22;10677;50.942;4.028;2023-08-12T00:09:08;22.30;99.90
21037;DHT22;10677;50.942;4.028;2023-08-12T00:11:37;22.30;99.90
21037;DHT22;10677;50.942;4.028;2023-08-12T00:14:03;22.10;99.90
21037;DHT22;10677;50.942;4.028;2023-08-12T00:16:29;22.10;99.90
21037;DHT22;10677;50.942;4.028;2023-08-12T00:18:55;22.10;99.90
21037;DHT22;10677;50.942;4.028;2023-08-12T00:21:20;22.10;99.90
21037;DHT22;10677;50.942;4.028;2023-08-12T00:23:46;22.10;99.90
21037;DHT22;10677;50.942;4.028;2023-08-12T00:26:13;22.10;99.90
21037;DHT22;10677;50.942;4.028;2023-08-12T00:28:38;22.10;99.90
21037;DHT22;10677;50.942;4.028;2023-08-12T00:31:04;22.10;99.90
21037;DHT22;10677;50.942;4.028;2023-08-12T00:33:30;22.10;99.90
21037;DHT22;10677;50.942;4.028;2023-08-12T00:35:56;22.10;99.90
21037;DHT22;10677;50.942;4.028;2023-08-12T00:38:21;22.10;99.90
21037;DHT22;10677;50.942;4.028;2023-08-12T00:40:48;22.10;99.90
21037;DHT22;10677;50.942;4.028;2023-08-12T00:43:14;22.10;99.90
21037;DHT22;10677;50.942;4.028;2023-08-12T00:45:40;22.10;99.90
21037;DHT22;10677;50.942;4.028;2023-08-12T00:48:08;22.00;99.90
21037;DHT22;10677;50.942;4.028;2023-08-12T00:50:36;22.00;99.90
21037;DHT22;10677;50.942;4.028;2023-08-12T00:53:02;21.90;99.90
21037;DHT22;10677;50.942;4.028;2023-08-12T00:55:27;21.90;99.90
21037;DHT22;10677;50.942;4.028;2023-08-12T00:57:53;21.90;99.90
21037;DHT22;10677;50.942;4.028;2023-08-12T01:00:19;21.90;99.90
21037;DHT22;10677;50.942;4.028;2023-08-12T01:02:47;22.00;99.90
21037;DHT22;10677;50.942;4.028;2023-08-12T01:05:17;22.10;99.90
21037;DHT22;10677;50.942;4.028;2023-08-12T01:07:46;22.10;99.90
21037;DHT22;10677;50.942;4.028;2023-08-12T01:10:13;22.10;99.90
21037;DHT22;10677;50.942;4.028;2023-08-12T01:12:54;22.00;99.90
21037;DHT22;10677;50.942;4.028;2023-08-12T01:15:22;22.00;99.90
21037;DHT22;10677;50.942;4.028;2023-08-12T01:17:49;22.00;99.90
21037;DHT22;10677;50.942;4.028;2023-08-12T01:20:21;21.90;99.90
21037;DHT22;10677;50.942;4.028;2023-08-12T01:23:06;22.00;99.90
21037;DHT22;10677;50.942;4.028;2023-08-12T01:25:32;22.00;99.90
21037;DHT22;10677;50.942;4.028;2023-08-12T01:27:58;22.00;99.90
21037;DHT22;10677;50.942;4.028;2023-08-12T01:30:24;22.00;99.90
21037;DHT22;10677;50.942;4.028;2023-08-12T01:33:10;22.00;99.90
21037;DHT22;10677;50.942;4.028;2023-08-12T01:35:44;22.00;99.90
21037;DHT22;10677;50.942;4.028;2023-08-12T01:38:12;22.00;99.90
21037;DHT22;10677;50.942;4.028;2023-08-12T01:40:39;22.00;99.90
21037;DHT22;10677;50.942;4.028;2023-08-12T01:43:05;21.90;99.90
21037;DHT22;10677;50.942;4.028;2023-08-12T01:45:33;22.00;99.90
21037;DHT22;10677;50.942;4.028;2023-08-12T01:47:59;22.00;99.90
21037;DHT22;10677;50.942;4.028;2023-08-12T01:50:25;21.90;99.90
21037;DHT22;10677;50.942;4.028;2023-08-12T01:52:51;21.80;99.90
21037;DHT22;10677;50.942;4.028;2023-08-12T01:55:17;21.90;99.90
21037;DHT22;10677;50.942;4.028;2023-08-12T01:57:43;21.90;99.90
21037;DHT22;10677;50.942;4.028;2023-08-12T02:00:09;21.90;99.90
21037;DHT22;10677;50.942;4.028;2023-08-12T02:02:34;21.90;99.90
21037;DHT22;10677;50.942;4.028;2023-08-12T02:05:01;21.90;99.90
21037;DHT22;10677;50.942;4.028;2023-08-12T02:07:26;21.90;99.90
21037;DHT22;10677;50.942;4.028;2023-08-12T02:09:52;21.90;99.90
21037;DHT22;10677;50.942;4.028;2023-08-12T02:12:18;21.90;99.90
21037;DHT22;10677;50.942;4.028;2023-08-12T02:14:43;21.90;99.90
21037;DHT22;10677;50.942;4.028;2023-08-12T02:17:09;21.90;99.90
21037;DHT22;10677;50.942;4.028;2023-08-12T02:19:35;21.90;99.90
21037;DHT22;10677;50.942;4.028;2023-08-12T02:22:04;22.00;99.90
21037;DHT22;10677;50.942;4.028;2023-08-12T02:24:29;21.90;99.90
21037;DHT22;10677;50.942;4.028;2023-08-12T02:26:55;22.00;99.90
21037;DHT22;10677;50.942;4.028;2023-08-12T02:29:21;21.90;99.90
21037;DHT22;10677;50.942;4.028;2023-08-12T02:31:46;22.00;99.90
21037;DHT22;10677;50.942;4.028;2023-08-12T02:34:12;22.00;99.90
21037;DHT22;10677;50.942;4.028;2023-08-12T02:36:38;21.90;99.90
21037;DHT22;10677;50.942;4.028;2023-08-12T02:39:04;21.90;99.90
21037;DHT22;10677;50.942;4.028;2023-08-12T02:41:30;21.90;99.90
21037;DHT22;10677;50.942;4.028;2023-08-12T02:43:56;21.90;99.90
21037;DHT22;10677;50.942;4.028;2023-08-12T02:46:22;21.90;99.90
21037;DHT22;10677;50.942;4.028;2023-08-12T02:48:48;21.90;99.90
21037;DHT22;10677;50.942;4.028;2023-08-12T02:51:14;22.00;99.90
21037;DHT22;10677;50.942;4.028;2023-08-12T02:53:39;22.10;99.90
21037;DHT22;10677;50.942;4.028;2023-08-12T02:56:05;21.80;99.90
21037;DHT22;10677;50.942;4.028;2023-08-12T02:58:31;21.70;99.90
21037;DHT22;10677;50.942;4.028;2023-08-12T03:00:56;21.60;99.90
21037;DHT22;10677;50.942;4.028;2023-08-12T03:03:22;21.40;99.90
21037;DHT22;10677;50.942;4.028;2023-08-12T03:05:48;21.30;99.90
21037;DHT22;10677;50.942;4.028;2023-08-12T03:08:14;21.20;99.90
21037;DHT22;10677;50.942;4.028;2023-08-12T03:10:40;21.20;99.90
21037;DHT22;10677;50.942;4.028;2023-08-12T03:13:06;21.20;99.90
21037;DHT22;10677;50.942;4.028;2023-08-12T03:15:32;21.10;99.90
21037;DHT22;10677;50.942;4.028;2023-08-12T03:17:57;21.00;99.90
21037;DHT22;10677;50.942;4.028;2023-08-12T03:20:23;21.00;99.90
21037;DHT22;10677;50.942;4.028;2023-08-12T03:22:49;21.10;99.90
21037;DHT22;10677;50.942;4.028;2023-08-12T03:25:15;21.20;99.90
21037;DHT22;10677;50.942;4.028;2023-08-12T03:27:41;21.10;99.90
21037;DHT22;10677;50.942;4.028;2023-08-12T03:30:07;21.10;99.90
21037;DHT22;10677;50.942;4.028;2023-08-12T03:32:33;21.10;99.90
21037;DHT22;10677;50.942;4.028;2023-08-12T03:34:59;21.10;99.90
21037;DHT22;10677;50.942;4.028;2023-08-12T03:37:25;21.10;99.90
21037;DHT22;10677;50.942;4.028;2023-08-12T03:39:51;21.10;99.90
21037;DHT22;10677;50.942;4.028;2023-08-12T03:42:17;21.20;99.90
21037;DHT22;10677;50.942;4.028;2023-08-12T03:44:43;21.20;99.90
21037;DHT22;10677;50.942;4.028;2023-08-12T03:47:09;21.10;99.90
21037;DHT22;10677;50.942;4.028;2023-08-12T03:49:35;21.10;99.90
21037;DHT22;10677;50.942;4.028;2023-08-12T03:52:00;21.00;99.90
21037;DHT22;10677;50.942;4.028;2023-08-12T03:54:26;21.10;99.90
21037;DHT22;10677;50.942;4.028;2023-08-12T03:56:52;21.00;99.90
21037;DHT22;10677;50.942;4.028;2023-08-12T03:59:17;21.00;99.90
21037;DHT22;10677;50.942;4.028;2023-08-12T04:01:43;21.00;99.90
21037;DHT22;10677;50.942;4.028;2023-08-12T04:04:09;20.90;99.90
21037;DHT22;10677;50.942;4.028;2023-08-12T04:06:34;20.90;99.90
21037;DHT22;10677;50.942;4.028;2023-08-12T04:09:01;20.80;99.90
21037;DHT22;10677;50.942;4.028;2023-08-12T04:11:26;20.80;99.90
21037;DHT22;10677;50.942;4.028;2023-08-12T04:13:52;20.80;99.90
21037;DHT22;10677;50.942;4.028;2023-08-12T04:16:17;20.80;99.90
21037;DHT22;10677;50.942;4.028;2023-08-12T04:18:43;20.80;99.90
21037;DHT22;10677;50.942;4.028;2023-08-12T04:21:09;20.80;99.90
21037;DHT22;10677;50.942;4.028;2023-08-12T04:23:34;20.80;99.90
21037;DHT22;10677;50.942;4.028;2023-08-12T04:26:00;20.80;99.90
21037;DHT22;10677;50.942;4.028;2023-08-12T04:28:25;20.70;99.90
21037;DHT22;10677;50.942;4.028;2023-08-12T04:30:51;20.70;99.90
21037;DHT22;10677;50.942;4.028;2023-08-12T04:33:18;20.60;99.90
21037;DHT22;10677;50.942;4.028;2023-08-12T04:35:45;20.60;99.90
21037;DHT22;10677;50.942;4.028;2023-08-12T04:38:11;20.70;99.90
21037;DHT22;10677;50.942;4.028;2023-08-12T04:40:40;20.70;99.90
21037;DHT22;10677;50.942;4.028;2023-08-12T04:43:06;20.60;99.90
21037;DHT22;10677;50.942;4.028;2023-08-12T04:45:32;20.60;99.90
21037;DHT22;10677;50.942;4.028;2023-08-12T04:47:58;20.60;99.90
21037;DHT22;10677;50.942;4.028;2023-08-12T04:50:25;20.60;99.90
21037;DHT22;10677;50.942;4.028;2023-08-12T04:52:50;20.60;99.90
21037;DHT22;10677;50.942;4.028;2023-08-12T04:55:16;20.60;99.90
21037;DHT22;10677;50.942;4.028;2023-08-12T04:57:42;20.60;99.90
21037;DHT22;10677;50.942;4.028;2023-08-12T05:00:08;20.60;99.90
21037;DHT22;10677;50.942;4.028;2023-08-12T05:02:34;20.60;99.90
21037;DHT22;10677;50.942;4.028;2023-08-12T05:05:00;20.70;99.90
21037;DHT22;10677;50.942;4.028;2023-08-12T05:07:26;20.70;99.90
21037;DHT22;10677;50.942;4.028;2023-08-12T05:09:52;20.70;99.90
21037;DHT22;10677;50.942;4.028;2023-08-12T05:12:17;20.70;99.90
21037;DHT22;10677;50.942;4.028;2023-08-12T05:14:43;20.80;99.90
21037;DHT22;10677;50.942;4.028;2023-08-12T05:17:09;20.80;99.90
21037;DHT22;10677;50.942;4.028;2023-08-12T05:19:34;20.80;99.90
21037;DHT22;10677;50.942;4.028;2023-08-12T05:22:00;20.90;99.90
21037;DHT22;10677;50.942;4.028;2023-08-12T05:24:26;20.90;99.90
21037;DHT22;10677;50.942;4.028;2023-08-12T05:26:51;20.90;99.90
21037;DHT22;10677;50.942;4.028;2023-08-12T05:29:17;20.90;99.90
21037;DHT22;10677;50.942;4.028;2023-08-12T05:31:43;20.90;99.90
21037;DHT22;10677;50.942;4.028;2023-08-12T05:34:08;21.00;99.90
21037;DHT22;10677;50.942;4.028;2023-08-12T05:36:35;21.00;99.90
21037;DHT22;10677;50.942;4.028;2023-08-12T05:39:00;21.00;99.90
21037;DHT22;10677;50.942;4.028;2023-08-12T05:41:26;21.00;99.90
21037;DHT22;10677;50.942;4.028;2023-08-12T05:43:52;21.00;99.90
21037;DHT22;10677;50.942;4.028;2023-08-12T05:46:17;21.00;99.90
21037;DHT22;10677;50.942;4.028;2023-08-12T05:48:43;21.00;99.90
21037;DHT22;10677;50.942;4.028;2023-08-12T05:51:08;21.00;99.90
21037;DHT22;10677;50.942;4.028;2023-08-12T05:53:34;21.00;99.90
21037;DHT22;10677;50.942;4.028;2023-08-12T05:56:00;21.00;99.90
21037;DHT22;10677;50.942;4.028;2023-08-12T05:58:26;21.00;99.90
21037;DHT22;10677;50.942;4.028;2023-08-12T06:00:52;21.00;99.90
21037;DHT22;10677;50.942;4.028;2023-08-12T06:03:17;21.00;99.90
21037;DHT22;10677;50.942;4.028;2023-08-12T06:05:45;21.10;99.90
21037;DHT22;10677;50.942;4.028;2023-08-12T06:08:11;21.00;99.90
21037;DHT22;10677;50.942;4.028;2023-08-12T06:10:37;21.10;99.90
21037;DHT22;10677;50.942;4.028;2023-08-12T06:13:02;21.00;99.90
21037;DHT22;10677;50.942;4.028;2023-08-12T06:15:29;20.80;99.90
21037;DHT22;10677;50.942;4.028;2023-08-12T06:17:55;20.50;99.90
21037;DHT22;10677;50.942;4.028;2023-08-12T06:20:20;20.40;99.90
21037;DHT22;10677;50.942;4.028;2023-08-12T06:22:46;20.20;99.90
21037;DHT22;10677;50.942;4.028;2023-08-12T06:25:12;20.10;99.90
21037;DHT22;10677;50.942;4.028;2023-08-12T06:27:38;19.80;99.90
21037;DHT22;10677;50.942;4.028;2023-08-12T06:30:04;19.40;99.90
21037;DHT22;10677;50.942;4.028;2023-08-12T06:32:30;19.10;99.90
21037;DHT22;10677;50.942;4.028;2023-08-12T06:34:56;19.00;99.90
21037;DHT22;10677;50.942;4.028;2023-08-12T06:37:22;18.90;99.90
21037;DHT22;10677;50.942;4.028;2023-08-12T06:39:47;18.80;99.90
21037;DHT22;10677;50.942;4.028;2023-08-12T06:42:13;18.70;99.90
21037;DHT22;10677;50.942;4.028;2023-08-12T06:44:38;18.70;99.90
21037;DHT22;10677;50.942;4.028;2023-08-12T06:47:04;18.70;99.90
21037;DHT22;10677;50.942;4.028;2023-08-12T06:49:31;18.80;99.90
21037;DHT22;10677;50.942;4.028;2023-08-12T06:51:57;18.80;99.90
21037;DHT22;10677;50.942;4.028;2023-08-12T06:54:22;18.70;99.90
21037;DHT22;10677;50.942;4.028;2023-08-12T06:56:49;18.80;99.90
21037;DHT22;10677;50.942;4.028;2023-08-12T06:59:14;18.70;99.90
21037;DHT22;10677;50.942;4.028;2023-08-12T07:01:40;18.90;99.90
21037;DHT22;10677;50.942;4.028;2023-08-12T07:04:06;18.70;99.90
21037;DHT22;10677;50.942;4.028;2023-08-12T07:06:31;18.80;99.90
21037;DHT22;10677;50.942;4.028;2023-08-12T07:08:57;18.90;99.90
21037;DHT22;10677;50.942;4.028;2023-08-12T07:11:23;18.90;99.90
21037;DHT22;10677;50.942;4.028;2023-08-12T07:13:48;18.90;99.90
21037;DHT22;10677;50.942;4.028;2023-08-12T07:16:14;18.70;99.90
21037;DHT22;10677;50.942;4.028;2023-08-12T07:18:40;18.80;99.90
21037;DHT22;10677;50.942;4.028;2023-08-12T07:21:05;18.90;99.90
21037;DHT22;10677;50.942;4.028;2023-08-12T07:23:31;19.00;99.90
21037;DHT22;10677;50.942;4.028;2023-08-12T07:25:57;19.00;99.90
21037;DHT22;10677;50.942;4.028;2023-08-12T07:28:22;19.30;99.90
21037;DHT22;10677;50.942;4.028;2023-08-12T07:30:49;19.30;99.90
21037;DHT22;10677;50.942;4.028;2023-08-12T07:33:15;19.30;99.90
21037;DHT22;10677;50.942;4.028;2023-08-12T07:35:40;19.30;99.90
21037;DHT22;10677;50.942;4.028;2023-08-12T07:38:06;19.40;99.90
21037;DHT22;10677;50.942;4.028;2023-08-12T07:40:32;19.20;99.90
21037;DHT22;10677;50.942;4.028;2023-08-12T07:42:58;19.30;99.90
21037;DHT22;10677;50.942;4.028;2023-08-12T07:45:23;19.60;99.90
21037;DHT22;10677;50.942;4.028;2023-08-12T07:47:50;19.80;99.90
21037;DHT22;10677;50.942;4.028;2023-08-12T07:50:16;20.00;99.90
21037;DHT22;10677;50.942;4.028;2023-08-12T07:52:41;20.30;99.90
21037;DHT22;10677;50.942;4.028;2023-08-12T07:55:07;20.30;99.90
21037;DHT22;10677;50.942;4.028;2023-08-12T07:57:33;20.50;99.90
21037;DHT22;10677;50.942;4.028;2023-08-12T07:59:58;20.70;99.90
21037;DHT22;10677;50.942;4.028;2023-08-12T08:02:24;20.50;99.90
21037;DHT22;10677;50.942;4.028;2023-08-12T08:04:50;20.40;99.90
21037;DHT22;10677;50.942;4.028;2023-08-12T08:07:16;20.30;99.90
21037;DHT22;10677;50.942;4.028;2023-08-12T08:09:43;19.90;99.90
21037;DHT22;10677;50.942;4.028;2023-08-12T08:12:09;19.70;99.90
21037;DHT22;10677;50.942;4.028;2023-08-12T08:14:35;19.80;99.90
21037;DHT22;10677;50.942;4.028;2023-08-12T08:17:01;20.00;99.90
21037;DHT22;10677;50.942;4.028;2023-08-12T08:19:27;20.20;99.90
21037;DHT22;10677;50.942;4.028;2023-08-12T08:21:53;20.40;99.90
21037;DHT22;10677;50.942;4.028;2023-08-12T08:24:18;20.30;99.90
21037;DHT22;10677;50.942;4.028;2023-08-12T08:26:44;20.50;99.90
21037;DHT22;10677;50.942;4.028;2023-08-12T08:29:13;20.50;99.90
21037;DHT22;10677;50.942;4.028;2023-08-12T08:31:39;20.50;99.90
21037;DHT22;10677;50.942;4.028;2023-08-12T08:34:04;20.00;99.90
21037;DHT22;10677;50.942;4.028;2023-08-12T08:36:30;19.80;99.90
21037;DHT22;10677;50.942;4.028;2023-08-12T08:38:56;19.80;99.90
21037;DHT22;10677;50.942;4.028;2023-08-12T08:41:22;20.10;99.90
21037;DHT22;10677;50.942;4.028;2023-08-12T08:43:48;20.30;99.90
21037;DHT22;10677;50.942;4.028;2023-08-12T08:46:15;20.70;99.90
21037;DHT22;10677;50.942;4.028;2023-08-12T08:48:42;21.10;99.90
21037;DHT22;10677;50.942;4.028;2023-08-12T08:51:10;20.90;99.90
21037;DHT22;10677;50.942;4.028;2023-08-12T08:53:38;20.70;99.90
21037;DHT22;10677;50.942;4.028;2023-08-12T08:56:07;20.50;99.90
21037;DHT22;10677;50.942;4.028;2023-08-12T08:58:33;20.90;99.90
21037;DHT22;10677;50.942;4.028;2023-08-12T09:01:00;21.10;99.90
21037;DHT22;10677;50.942;4.028;2023-08-12T09:03:27;21.30;99.90
21037;DHT22;10677;50.942;4.028;2023-08-12T09:05:54;21.20;99.90
21037;DHT22;10677;50.942;4.028;2023-08-12T09:08:21;21.00;99.90
21037;DHT22;10677;50.942;4.028;2023-08-12T09:10:48;21.20;99.90
21037;DHT22;10677;50.942;4.028;2023-08-12T09:13:14;21.30;99.90
21037;DHT22;10677;50.942;4.028;2023-08-12T09:15:41;21.40;99.90
21037;DHT22;10677;50.942;4.028;2023-08-12T09:18:07;21.60;99.90
21037;DHT22;10677;50.942;4.028;2023-08-12T09:20:34;21.70;99.90
21037;DHT22;10677;50.942;4.028;2023-08-12T09:23:00;21.70;99.90
21037;DHT22;10677;50.942;4.028;2023-08-12T09:25:27;21.60;99.90
21037;DHT22;10677;50.942;4.028;2023-08-12T09:27:55;21.60;99.90
21037;DHT22;10677;50.942;4.028;2023-08-12T09:30:23;21.50;99.90
21037;DHT22;10677;50.942;4.028;2023-08-12T09:32:59;21.50;99.90
21037;DHT22;10677;50.942;4.028;2023-08-12T09:35:34;21.60;99.90
21037;DHT22;10677;50.942;4.028;2023-08-12T09:38:05;21.70;99.90
21037;DHT22;10677;50.942;4.028;2023-08-12T09:40:32;21.80;99.90
21037;DHT22;10677;50.942;4.028;2023-08-12T09:42:58;22.00;99.90
21037;DHT22;10677;50.942;4.028;2023-08-12T09:45:25;22.20;99.90
21037;DHT22;10677;50.942;4.028;2023-08-12T09:47:51;22.60;99.90
21037;DHT22;10677;50.942;4.028;2023-08-12T09:50:17;22.90;99.90
21037;DHT22;10677;50.942;4.028;2023-08-12T09:52:43;22.90;99.90
21037;DHT22;10677;50.942;4.028;2023-08-12T09:55:11;23.10;99.90
21037;DHT22;10677;50.942;4.028;2023-08-12T09:57:42;23.20;99.90
21037;DHT22;10677;50.942;4.028;2023-08-12T10:00:08;23.20;99.90
21037;DHT22;10677;50.942;4.028;2023-08-12T10:02:45;23.30;99.90
21037;DHT22;10677;50.942;4.028;2023-08-12T10:05:15;23.40;99.90
21037;DHT22;10677;50.942;4.028;2023-08-12T10:07:42;23.20;99.90
21037;DHT22;10677;50.942;4.028;2023-08-12T10:10:09;23.10;99.90
21037;DHT22;10677;50.942;4.028;2023-08-12T10:12:36;23.00;99.90
21037;DHT22;10677;50.942;4.028;2023-08-12T10:15:07;22.90;99.90
21037;DHT22;10677;50.942;4.028;2023-08-12T10:17:34;22.40;99.90
21037;DHT22;10677;50.942;4.028;2023-08-12T10:20:03;22.00;99.90
21037;DHT22;10677;50.942;4.028;2023-08-12T10:22:30;21.90;99.90
21037;DHT22;10677;50.942;4.028;2023-08-12T10:25:02;22.20;99.90
21037;DHT22;10677;50.942;4.028;2023-08-12T10:27:28;22.50;99.90
21037;DHT22;10677;50.942;4.028;2023-08-12T10:29:57;22.60;99.90
21037;DHT22;10677;50.942;4.028;2023-08-12T10:32:25;22.80;99.90
21037;DHT22;10677;50.942;4.028;2023-08-12T10:34:56;22.90;99.90
21037;DHT22;10677;50.942;4.028;2023-08-12T10:37:25;22.80;99.90
21037;DHT22;10677;50.942;4.028;2023-08-12T10:39:56;22.60;99.90
21037;DHT22;10677;50.942;4.028;2023-08-12T10:42:40;22.60;99.90
21037;DHT22;10677;50.942;4.028;2023-08-12T10:45:08;22.50;99.90
21037;DHT22;10677;50.942;4.028;2023-08-12T10:47:41;22.50;99.90
21037;DHT22;10677;50.942;4.028;2023-08-12T10:50:19;22.80;99.90
21037;DHT22;10677;50.942;4.028;2023-08-12T10:52:46;23.10;99.90
21037;DHT22;10677;50.942;4.028;2023-08-12T10:57:48;23.10;99.90
21037;DHT22;10677;50.942;4.028;2023-08-12T11:00:25;23.00;99.90
21037;DHT22;10677;50.942;4.028;2023-08-12T11:02:55;22.90;99.90
21037;DHT22;10677;50.942;4.028;2023-08-12T11:05:22;23.10;99.90
21037;DHT22;10677;50.942;4.028;2023-08-12T11:07:59;23.30;99.90
21037;DHT22;10677;50.942;4.028;2023-08-12T11:10:27;23.00;99.90
21037;DHT22;10677;50.942;4.028;2023-08-12T11:12:56;22.70;99.90
21037;DHT22;10677;50.942;4.028;2023-08-12T11:15:36;22.60;99.90
21037;DHT22;10677;50.942;4.028;2023-08-12T11:18:09;22.40;99.90
21037;DHT22;10677;50.942;4.028;2023-08-12T11:20:36;22.20;99.90
21037;DHT22;10677;50.942;4.028;2023-08-12T11:23:04;22.60;99.90
21037;DHT22;10677;50.942;4.028;2023-08-12T11:25:31;22.80;99.90
21037;DHT22;10677;50.942;4.028;2023-08-12T11:27:57;23.00;99.90
21037;DHT22;10677;50.942;4.028;2023-08-12T11:30:24;23.20;99.90
21037;DHT22;10677;50.942;4.028;2023-08-12T11:32:51;23.40;99.90
21037;DHT22;10677;50.942;4.028;2023-08-12T11:35:18;23.50;99.90
21037;DHT22;10677;50.942;4.028;2023-08-12T11:37:46;23.50;99.90
21037;DHT22;10677;50.942;4.028;2023-08-12T11:40:15;23.70;99.90
21037;DHT22;10677;50.942;4.028;2023-08-12T11:42:45;23.90;99.90
21037;DHT22;10677;50.942;4.028;2023-08-12T11:45:12;24.00;99.90
21037;DHT22;10677;50.942;4.028;2023-08-12T11:47:39;24.00;99.90
21037;DHT22;10677;50.942;4.028;2023-08-12T11:50:09;24.20;99.90
21037;DHT22;10677;50.942;4.028;2023-08-12T11:52:36;24.10;99.90
21037;DHT22;10677;50.942;4.028;2023-08-12T11:55:03;24.30;99.90
21037;DHT22;10677;50.942;4.028;2023-08-12T11:57:29;24.60;99.90
21037;DHT22;10677;50.942;4.028;2023-08-12T12:00:06;24.70;99.90
21037;DHT22;10677;50.942;4.028;2023-08-12T12:02:53;24.60;99.90
21037;DHT22;10677;50.942;4.028;2023-08-12T12:05:27;24.80;99.90
21037;DHT22;10677;50.942;4.028;2023-08-12T12:07:53;25.00;99.90
21037;DHT22;10677;50.942;4.028;2023-08-12T12:10:27;25.10;99.90
21037;DHT22;10677;50.942;4.028;2023-08-12T12:12:55;25.40;99.90
21037;DHT22;10677;50.942;4.028;2023-08-12T12:15:21;25.40;99.90
21037;DHT22;10677;50.942;4.028;2023-08-12T12:17:50;25.60;99.90
21037;DHT22;10677;50.942;4.028;2023-08-12T12:20:16;25.90;99.90
21037;DHT22;10677;50.942;4.028;2023-08-12T12:22:44;25.90;99.90
21037;DHT22;10677;50.942;4.028;2023-08-12T12:25:12;25.90;99.90
21037;DHT22;10677;50.942;4.028;2023-08-12T12:27:39;25.70;99.90
21037;DHT22;10677;50.942;4.028;2023-08-12T12:30:08;25.60;99.90
21037;DHT22;10677;50.942;4.028;2023-08-12T12:32:34;25.70;99.90
21037;DHT22;10677;50.942;4.028;2023-08-12T12:34:59;26.00;99.90
21037;DHT22;10677;50.942;4.028;2023-08-12T12:37:25;26.30;99.90
21037;DHT22;10677;50.942;4.028;2023-08-12T12:39:51;26.20;99.90
21037;DHT22;10677;50.942;4.028;2023-08-12T12:42:17;26.20;99.90
21037;DHT22;10677;50.942;4.028;2023-08-12T12:44:42;26.00;99.90
21037;DHT22;10677;50.942;4.028;2023-08-12T12:47:08;25.90;99.90
21037;DHT22;10677;50.942;4.028;2023-08-12T12:49:36;25.50;99.90
21037;DHT22;10677;50.942;4.028;2023-08-12T12:52:01;25.60;99.90
21037;DHT22;10677;50.942;4.028;2023-08-12T12:54:27;25.80;99.90
21037;DHT22;10677;50.942;4.028;2023-08-12T12:56:55;26.10;99.90
21037;DHT22;10677;50.942;4.028;2023-08-12T12:59:20;26.10;99.90
21037;DHT22;10677;50.942;4.028;2023-08-12T13:01:46;26.20;99.90
21037;DHT22;10677;50.942;4.028;2023-08-12T13:04:12;26.20;99.90
21037;DHT22;10677;50.942;4.028;2023-08-12T13:06:38;26.40;99.90
21037;DHT22;10677;50.942;4.028;2023-08-12T13:09:03;26.50;99.90
21037;DHT22;10677;50.942;4.028;2023-08-12T13:11:32;26.50;99.90
21037;DHT22;10677;50.942;4.028;2023-08-12T13:13:59;26.70;99.90
21037;DHT22;10677;50.942;4.028;2023-08-12T13:16:24;26.70;99.90
21037;DHT22;10677;50.942;4.028;2023-08-12T13:18:51;26.50;99.90
21037;DHT22;10677;50.942;4.028;2023-08-12T13:21:16;26.30;99.90
21037;DHT22;10677;50.942;4.028;2023-08-12T13:23:42;26.40;99.90
21037;DHT22;10677;50.942;4.028;2023-08-12T13:26:08;26.10;99.90
21037;DHT22;10677;50.942;4.028;2023-08-12T13:28:33;25.60;99.90
21037;DHT22;10677;50.942;4.028;2023-08-12T13:30:59;25.40;99.90
21037;DHT22;10677;50.942;4.028;2023-08-12T13:33:25;25.40;99.90
21037;DHT22;10677;50.942;4.028;2023-08-12T13:35:50;25.80;99.90
21037;DHT22;10677;50.942;4.028;2023-08-12T13:38:16;25.60;99.90
21037;DHT22;10677;50.942;4.028;2023-08-12T13:40:42;25.50;99.90
21037;DHT22;10677;50.942;4.028;2023-08-12T13:43:08;25.90;99.90
21037;DHT22;10677;50.942;4.028;2023-08-12T13:45:33;27.60;99.90
21037;DHT22;10677;50.942;4.028;2023-08-12T13:47:59;28.90;99.90
21037;DHT22;10677;50.942;4.028;2023-08-12T13:50:25;28.60;99.90
21037;DHT22;10677;50.942;4.028;2023-08-12T13:52:50;28.60;99.90
21037;DHT22;10677;50.942;4.028;2023-08-12T13:55:16;29.90;99.90
21037;DHT22;10677;50.942;4.028;2023-08-12T13:57:42;30.70;99.90
21037;DHT22;10677;50.942;4.028;2023-08-12T14:00:08;29.00;99.90
21037;DHT22;10677;50.942;4.028;2023-08-12T14:02:39;27.80;99.90
21037;DHT22;10677;50.942;4.028;2023-08-12T14:05:05;29.20;99.90
21037;DHT22;10677;50.942;4.028;2023-08-12T14:07:31;30.70;99.90
21037;DHT22;10677;50.942;4.028;2023-08-12T14:09:58;32.70;99.90
21037;DHT22;10677;50.942;4.028;2023-08-12T14:12:23;32.80;99.90
21037;DHT22;10677;50.942;4.028;2023-08-12T14:14:49;33.00;99.90
21037;DHT22;10677;50.942;4.028;2023-08-12T14:17:16;32.50;99.90
21037;DHT22;10677;50.942;4.028;2023-08-12T14:19:47;32.60;99.90
21037;DHT22;10677;50.942;4.028;2023-08-12T14:22:13;32.10;99.90
21037;DHT22;10677;50.942;4.028;2023-08-12T14:24:39;30.80;99.90
21037;DHT22;10677;50.942;4.028;2023-08-12T14:27:05;29.50;99.90
21037;DHT22;10677;50.942;4.028;2023-08-12T14:29:30;29.00;99.90
21037;DHT22;10677;50.942;4.028;2023-08-12T14:31:57;30.90;99.90
21037;DHT22;10677;50.942;4.028;2023-08-12T14:34:23;30.80;99.90
21037;DHT22;10677;50.942;4.028;2023-08-12T14:36:49;30.40;99.90
21037;DHT22;10677;50.942;4.028;2023-08-12T14:39:14;29.70;99.90
21037;DHT22;10677;50.942;4.028;2023-08-12T14:41:40;29.10;99.90
21037;DHT22;10677;50.942;4.028;2023-08-12T14:44:06;28.70;99.90
21037;DHT22;10677;50.942;4.028;2023-08-12T14:46:31;29.00;99.90
21037;DHT22;10677;50.942;4.028;2023-08-12T14:48:57;30.80;99.90
21037;DHT22;10677;50.942;4.028;2023-08-12T14:51:23;32.50;99.90
21037;DHT22;10677;50.942;4.028;2023-08-12T14:53:48;33.60;99.90
21037;DHT22;10677;50.942;4.028;2023-08-12T14:56:15;33.80;99.90
21037;DHT22;10677;50.942;4.028;2023-08-12T14:58:40;33.70;99.90
21037;DHT22;10677;50.942;4.028;2023-08-12T15:01:06;31.90;99.90
21037;DHT22;10677;50.942;4.028;2023-08-12T15:03:32;32.30;99.90
21037;DHT22;10677;50.942;4.028;2023-08-12T15:06:02;33.20;99.90
21037;DHT22;10677;50.942;4.028;2023-08-12T15:08:32;33.40;99.90
21037;DHT22;10677;50.942;4.028;2023-08-12T15:10:58;32.40;99.90
21037;DHT22;10677;50.942;4.028;2023-08-12T15:13:25;31.40;99.90
21037;DHT22;10677;50.942;4.028;2023-08-12T15:15:51;29.80;99.90
21037;DHT22;10677;50.942;4.028;2023-08-12T15:18:18;28.80;99.90
21037;DHT22;10677;50.942;4.028;2023-08-12T15:20:44;28.20;99.90
21037;DHT22;10677;50.942;4.028;2023-08-12T15:23:10;28.70;99.90
21037;DHT22;10677;50.942;4.028;2023-08-12T15:25:35;29.30;99.90
21037;DHT22;10677;50.942;4.028;2023-08-12T15:28:01;30.50;99.90
21037;DHT22;10677;50.942;4.028;2023-08-12T15:30:28;32.10;99.90